createdAt,value
2019-01-03T00:01:11.089Z,-0.30
2019-01-03T00:04:16.172Z,-0.40
2019-01-03T00:07:30.016Z,-0.40
2019-01-03T00:10:44.075Z,-0.40
2019-01-03T00:14:05.433Z,-0.40
2019-01-03T00:17:19.509Z,-0.40
2019-01-03T00:20:27.380Z,-0.40
2019-01-03T00:23:44.504Z,-0.50
2019-01-03T00:26:53.825Z,-0.40
2019-01-03T00:29:59.077Z,-0.50
2019-01-03T00:33:07.074Z,-0.50
2019-01-03T00:36:12.145Z,-0.60
2019-01-03T00:39:20.160Z,-0.70
2019-01-03T00:42:41.227Z,-0.80
2019-01-03T00:45:48.692Z,-0.80
2019-01-03T00:49:09.508Z,-0.80
2019-01-03T00:52:14.565Z,-0.90
2019-01-03T00:55:19.641Z,-0.90
2019-01-03T00:58:40.808Z,-0.90
2019-01-03T01:01:45.877Z,-0.90
2019-01-03T01:04:53.851Z,-1.10
2019-01-03T01:08:15.170Z,-1.20
2019-01-03T01:11:36.445Z,-1.30
2019-01-03T01:14:57.499Z,-1.30
2019-01-03T01:18:02.547Z,-1.40
2019-01-03T01:21:13.314Z,-1.40
2019-01-03T01:24:33.205Z,-1.60
2019-01-03T01:27:56.096Z,-1.60
2019-01-03T01:31:01.155Z,-1.70
2019-01-03T01:34:11.776Z,-1.70
2019-01-03T01:37:16.858Z,-1.70
2019-01-03T01:40:38.316Z,-1.70
2019-01-03T01:43:59.716Z,-1.70
2019-01-03T01:47:16.844Z,-1.70
2019-01-03T01:50:21.888Z,-1.70
2019-01-03T01:53:27.088Z,-1.70
2019-01-03T01:56:32.136Z,-1.80
2019-01-03T01:59:53.548Z,-1.80
2019-01-03T02:03:14.900Z,-1.80
2019-01-03T02:06:31.869Z,-1.80
2019-01-03T02:09:52.946Z,-1.80
2019-01-03T02:13:13.491Z,-1.80
2019-01-03T02:16:30.627Z,-1.80
2019-01-03T02:19:44.520Z,-1.80
2019-01-03T02:23:05.880Z,-1.90
2019-01-03T02:26:22.789Z,-1.80
2019-01-03T02:29:36.614Z,-1.90
2019-01-03T02:32:41.693Z,-1.90
2019-01-03T02:36:01.556Z,-2.00
2019-01-03T02:39:23.932Z,-2.00
2019-01-03T02:42:45.213Z,-2.10
2019-01-03T02:45:50.278Z,-2.20
2019-01-03T02:49:03.996Z,-2.20
2019-01-03T02:52:14.737Z,-2.20
2019-01-03T02:55:25.577Z,-2.30
2019-01-03T02:58:42.395Z,-2.40
2019-01-03T03:01:53.136Z,-2.30
2019-01-03T03:05:14.536Z,-2.30
2019-01-03T03:08:28.689Z,-2.30
2019-01-03T03:11:49.824Z,-2.30
2019-01-03T03:15:00.918Z,-2.30
2019-01-03T03:18:11.946Z,-2.40
2019-01-03T03:21:22.671Z,-2.40
2019-01-03T03:24:27.737Z,-2.50
2019-01-03T03:27:44.617Z,-2.50
2019-01-03T03:31:01.109Z,-2.50
2019-01-03T03:34:22.459Z,-2.40
2019-01-03T03:37:43.809Z,-2.30
2019-01-03T03:40:49.809Z,-2.40
2019-01-03T03:43:57.536Z,-2.40
2019-01-03T03:47:17.662Z,-2.30
2019-01-03T03:50:31.763Z,-2.30
2019-01-03T03:53:42.481Z,-2.20
2019-01-03T03:57:03.860Z,-2.30
2019-01-03T04:00:11.472Z,-2.40
2019-01-03T04:03:28.646Z,-2.50
2019-01-03T04:06:49.731Z,-2.50
2019-01-03T04:10:00.737Z,-2.40
2019-01-03T04:13:23.632Z,-2.50
2019-01-03T04:16:31.625Z,-2.50
2019-01-03T04:19:45.700Z,-2.50
2019-01-03T04:22:56.617Z,-2.50
2019-01-03T04:26:07.621Z,-2.50
2019-01-03T04:29:18.408Z,-2.40
2019-01-03T04:32:31.968Z,-2.40
2019-01-03T04:35:39.745Z,-2.40
2019-01-03T04:38:47.864Z,-2.40
2019-01-03T04:41:52.941Z,-2.50
2019-01-03T04:44:57.995Z,-2.60
2019-01-03T04:48:19.109Z,-2.60
2019-01-03T04:51:30.109Z,-2.60
2019-01-03T04:54:40.917Z,-2.60
2019-01-03T04:57:51.812Z,-2.60
2019-01-03T05:01:02.414Z,-2.50
2019-01-03T05:04:07.490Z,-2.50
2019-01-03T05:07:30.646Z,-2.50
2019-01-03T05:10:51.620Z,-2.50
2019-01-03T05:14:14.310Z,-2.50
2019-01-03T05:17:35.635Z,-2.40
2019-01-03T05:20:43.746Z,-2.30
2019-01-03T05:24:05.180Z,-2.20
2019-01-03T05:27:16.345Z,-2.10
2019-01-03T05:30:24.312Z,-1.90
2019-01-03T05:33:41.077Z,-1.90
2019-01-03T05:36:46.125Z,-1.90
2019-01-03T05:39:54.101Z,-1.80
2019-01-03T05:43:07.717Z,-1.80
2019-01-03T05:46:30.849Z,-1.80
2019-01-03T05:49:52.005Z,-1.80
2019-01-03T05:52:57.064Z,-1.70
2019-01-03T05:56:11.193Z,-1.80
2019-01-03T05:59:21.666Z,-1.90
2019-01-03T06:02:29.652Z,-1.80
2019-01-03T06:05:37.633Z,-1.80
2019-01-03T06:08:57.481Z,-1.70
2019-01-03T06:12:02.531Z,-1.70
2019-01-03T06:15:23.297Z,-1.60
2019-01-03T06:18:44.703Z,-1.60
2019-01-03T06:21:49.786Z,-1.40
2019-01-03T06:25:03.621Z,-1.30
2019-01-03T06:28:24.693Z,-1.30
2019-01-03T06:31:32.753Z,-1.20
2019-01-03T06:34:53.880Z,-1.10
2019-01-03T06:38:01.906Z,-1.20
2019-01-03T06:41:06.973Z,-1.20
2019-01-03T06:44:28.000Z,-1.30
2019-01-03T06:47:49.276Z,-1.30
2019-01-03T06:50:57.289Z,-1.40
2019-01-03T06:54:02.344Z,-1.40
2019-01-03T06:57:13.295Z,-1.50
2019-01-03T07:00:27.382Z,-1.40
2019-01-03T07:03:44.340Z,-1.50
2019-01-03T07:06:49.389Z,-1.50
2019-01-03T07:10:10.704Z,-1.50
2019-01-03T07:13:18.689Z,-1.60
2019-01-03T07:16:23.777Z,-1.70
2019-01-03T07:19:31.780Z,-1.80
2019-01-03T07:22:52.860Z,-1.80
2019-01-03T07:25:57.904Z,-1.80
2019-01-03T07:29:19.126Z,-1.80
2019-01-03T07:32:36.276Z,-1.70
2019-01-03T07:35:53.360Z,-1.60
2019-01-03T07:38:58.401Z,-1.50
2019-01-03T07:42:09.560Z,-1.40
2019-01-03T07:45:30.800Z,-1.20
2019-01-03T07:48:41.901Z,-0.90
2019-01-03T07:51:46.985Z,-0.70
2019-01-03T07:55:08.138Z,-0.40
2019-01-03T07:58:16.263Z,-0.30
2019-01-03T08:01:27.401Z,-0.20
2019-01-03T08:04:48.488Z,-0.20
2019-01-03T08:07:59.514Z,-0.20
2019-01-03T08:11:20.929Z,-0.10
2019-01-03T08:14:25.977Z,-0.10
2019-01-03T08:17:39.797Z,0.00
2019-01-03T08:20:50.556Z,0.00
2019-01-03T08:24:07.449Z,0.10
2019-01-03T08:27:21.232Z,0.00
2019-01-03T08:30:38.080Z,0.00
2019-01-03T08:33:59.189Z,0.00
2019-01-03T08:37:09.662Z,0.00
2019-01-03T08:40:14.808Z,0.00
2019-01-03T08:43:27.057Z,0.10
2019-01-03T08:46:41.115Z,0.10
2019-01-03T08:50:00.746Z,0.10
2019-01-03T08:53:05.807Z,0.10
2019-01-03T08:56:13.566Z,0.20
2019-01-03T08:59:34.354Z,0.20
2019-01-03T09:02:39.433Z,0.30
2019-01-03T09:05:44.488Z,0.40
2019-01-03T09:08:51.988Z,0.40
2019-01-03T09:12:05.753Z,0.40
2019-01-03T09:15:16.848Z,0.50
2019-01-03T09:18:30.999Z,0.50
2019-01-03T09:21:42.030Z,0.60
2019-01-03T09:24:50.024Z,0.50
2019-01-03T09:27:55.075Z,0.60
2019-01-03T09:31:16.124Z,0.60
2019-01-03T09:34:36.213Z,0.60
2019-01-03T09:37:57.637Z,0.60
2019-01-03T09:41:14.784Z,0.70
2019-01-03T09:44:22.553Z,0.80
2019-01-03T09:47:25.964Z,0.70
2019-01-03T09:50:29.408Z,0.70
2019-01-03T09:53:32.826Z,0.80
2019-01-03T09:56:36.455Z,0.80
2019-01-03T09:59:40.033Z,0.80
2019-01-03T10:02:43.682Z,0.90
2019-01-03T10:05:47.157Z,1.20
2019-01-03T10:08:50.577Z,1.50
2019-01-03T10:11:54.027Z,1.80
2019-01-03T10:14:57.460Z,2.10
2019-01-03T10:18:03.104Z,2.20
2019-01-03T10:21:06.520Z,2.20
2019-01-03T10:24:09.946Z,2.20
2019-01-03T10:27:13.389Z,2.30
2019-01-03T10:30:16.799Z,2.20
2019-01-03T10:33:20.244Z,2.10
2019-01-03T10:36:24.324Z,2.20
2019-01-03T10:39:27.872Z,2.40
2019-01-03T10:42:31.302Z,2.40
2019-01-03T10:45:34.733Z,2.30
2019-01-03T10:48:38.160Z,2.20
2019-01-03T10:51:41.589Z,2.10
2019-01-03T10:54:45.028Z,2.10
2019-01-03T10:57:48.444Z,2.10
2019-01-03T11:00:51.887Z,2.20
2019-01-03T11:03:55.296Z,2.30
2019-01-03T11:06:58.724Z,2.40
2019-01-03T11:10:02.145Z,2.50
2019-01-03T11:13:05.572Z,2.50
2019-01-03T11:16:08.984Z,2.60
2019-01-03T11:19:12.412Z,2.70
2019-01-03T11:22:15.857Z,2.80
2019-01-03T11:25:19.278Z,2.80
2019-01-03T11:28:22.718Z,2.80
2019-01-03T11:31:26.125Z,2.80
2019-01-03T11:34:29.556Z,2.80
2019-01-03T11:37:32.980Z,2.60
2019-01-03T11:40:36.412Z,2.60
2019-01-03T11:43:39.856Z,2.50
2019-01-03T11:46:43.286Z,2.40
2019-01-03T11:49:46.700Z,2.40
2019-01-03T11:52:50.138Z,2.40
2019-01-03T11:55:53.577Z,2.40
2019-01-03T11:58:57.020Z,2.40
2019-01-03T12:02:00.434Z,2.40
2019-01-03T12:05:03.928Z,2.30
2019-01-03T12:08:07.337Z,2.40
2019-01-03T12:11:10.772Z,2.40
2019-01-03T12:14:14.177Z,2.30
2019-01-03T12:17:17.616Z,2.20
2019-01-03T12:20:21.031Z,2.30
2019-01-03T12:23:24.476Z,2.30
2019-01-03T12:26:27.880Z,2.10
2019-01-03T12:29:31.312Z,2.10
2019-01-03T12:32:34.744Z,2.10
2019-01-03T12:35:38.172Z,2.20
2019-01-03T12:38:41.585Z,2.20
2019-01-03T12:41:45.016Z,2.20
2019-01-03T12:44:48.437Z,2.30
2019-01-03T12:47:51.872Z,2.40
2019-01-03T12:50:55.337Z,2.50
2019-01-03T12:53:58.788Z,2.50
2019-01-03T12:57:02.197Z,2.60
2019-01-03T13:00:09.200Z,2.50
2019-01-03T13:03:12.649Z,2.60
2019-01-03T13:06:21.021Z,2.50
2019-01-03T13:09:21.222Z,2.50
2019-01-03T13:12:24.660Z,2.40
2019-01-03T13:15:28.110Z,2.40
2019-01-03T13:18:31.525Z,2.40
2019-01-03T13:21:34.957Z,2.50
2019-01-03T13:24:38.377Z,2.60
2019-01-03T13:27:41.853Z,2.50
2019-01-03T13:30:45.285Z,2.60
2019-01-03T13:33:48.716Z,2.50
2019-01-03T13:36:52.153Z,2.50
2019-01-03T13:39:55.569Z,2.50
2019-01-03T13:42:59.013Z,2.50
2019-01-03T13:46:02.424Z,2.60
2019-01-03T13:49:05.852Z,2.70
2019-01-03T13:52:09.270Z,2.70
2019-01-03T13:55:12.697Z,2.70
2019-01-03T13:58:16.109Z,2.70
2019-01-03T14:01:19.537Z,2.70
2019-01-03T14:04:22.957Z,2.70
2019-01-03T14:07:26.384Z,2.70
2019-01-03T14:10:30.647Z,2.70
2019-01-03T14:13:34.058Z,2.70
2019-01-03T14:16:37.504Z,2.60
2019-01-03T14:19:41.001Z,2.60
2019-01-03T14:22:44.412Z,2.60
2019-01-03T14:25:47.863Z,2.50
2019-01-03T14:28:51.261Z,2.40
2019-01-03T14:31:54.710Z,2.40
2019-01-03T14:34:58.126Z,2.30
2019-01-03T14:38:01.567Z,2.30
2019-01-03T14:41:05.001Z,2.30
2019-01-03T14:44:08.414Z,2.30
2019-01-03T14:47:11.840Z,2.20
2019-01-03T14:50:15.249Z,2.20
2019-01-03T14:53:18.684Z,2.20
2019-01-03T14:56:22.121Z,2.10
2019-01-03T14:59:25.540Z,2.00
2019-01-03T15:02:28.976Z,2.00
2019-01-03T15:05:32.381Z,2.00
2019-01-03T15:08:36.087Z,2.00
2019-01-03T15:11:39.572Z,2.00
2019-01-03T15:14:42.993Z,1.90
2019-01-03T15:17:46.426Z,1.90
2019-01-03T15:20:49.832Z,1.80
2019-01-03T15:23:53.268Z,1.80
2019-01-03T15:26:56.671Z,1.80
2019-01-03T15:30:00.229Z,1.80
2019-01-03T15:33:03.701Z,1.80
2019-01-03T15:36:07.166Z,1.80
2019-01-03T15:39:10.601Z,2.00
2019-01-03T15:42:14.040Z,2.00
2019-01-03T15:45:17.458Z,2.00
2019-01-03T15:48:20.909Z,2.00
2019-01-03T15:51:24.314Z,2.00
2019-01-03T15:54:27.744Z,2.00
2019-01-03T15:57:31.183Z,1.90
2019-01-03T16:00:34.598Z,1.90
2019-01-03T16:03:38.036Z,1.90
2019-01-03T16:06:41.473Z,1.90
2019-01-03T16:09:44.913Z,1.90
2019-01-03T16:12:48.346Z,1.90
2019-01-03T16:15:51.778Z,2.00
2019-01-03T16:18:55.209Z,2.00
2019-01-03T16:21:58.633Z,2.10
2019-01-03T16:25:02.069Z,2.00
2019-01-03T16:28:05.501Z,2.00
2019-01-03T16:31:08.941Z,1.90
2019-01-03T16:34:12.379Z,1.80
2019-01-03T16:37:15.813Z,1.70
2019-01-03T16:40:19.245Z,1.60
2019-01-03T16:43:22.692Z,1.70
2019-01-03T16:46:26.120Z,1.70
2019-01-03T16:49:29.536Z,1.70
2019-01-03T16:52:32.973Z,1.80
2019-01-03T16:55:36.404Z,1.70
2019-01-03T16:58:39.836Z,1.70
2019-01-03T17:01:43.285Z,1.60
2019-01-03T17:04:46.714Z,1.60
2019-01-03T17:07:50.144Z,1.60
2019-01-03T17:10:53.581Z,1.60
2019-01-03T17:13:56.993Z,1.50
2019-01-03T17:17:00.802Z,1.50
2019-01-03T17:20:06.765Z,1.50
2019-01-03T17:23:10.200Z,1.50
2019-01-03T17:26:13.612Z,1.50
2019-01-03T17:29:17.042Z,1.40
2019-01-03T17:32:20.456Z,1.40
2019-01-03T17:35:23.901Z,1.40
2019-01-03T17:38:27.325Z,1.30
2019-01-03T17:41:30.771Z,1.30
2019-01-03T17:44:34.183Z,1.20
2019-01-03T17:47:37.616Z,1.20
2019-01-03T17:50:41.045Z,1.10
2019-01-03T17:53:44.488Z,1.10
2019-01-03T17:56:47.906Z,1.10
2019-01-03T17:59:51.345Z,1.10
2019-01-03T18:02:54.763Z,1.10
2019-01-03T18:05:58.196Z,1.00
2019-01-03T18:09:01.625Z,1.00
2019-01-03T18:12:05.057Z,1.00
2019-01-03T18:15:08.909Z,1.00
2019-01-03T18:18:12.356Z,1.00
2019-01-03T18:21:15.789Z,1.00
2019-01-03T18:24:19.309Z,1.00
2019-01-03T18:27:22.721Z,1.00
2019-01-03T18:30:26.162Z,0.90
2019-01-03T18:33:29.580Z,1.00
2019-01-03T18:36:33.018Z,0.90
2019-01-03T18:39:36.436Z,0.90
2019-01-03T18:42:39.870Z,0.90
2019-01-03T18:45:43.290Z,0.90
2019-01-03T18:48:46.719Z,0.90
2019-01-03T18:51:50.160Z,0.90
2019-01-03T18:54:53.609Z,0.90
2019-01-03T18:57:57.041Z,0.80
2019-01-03T19:01:00.468Z,0.80
2019-01-03T19:04:03.905Z,0.80
2019-01-03T19:07:07.340Z,0.80
2019-01-03T19:10:10.861Z,0.70
2019-01-03T19:13:14.292Z,0.70
2019-01-03T19:16:17.708Z,0.70
2019-01-03T19:19:21.140Z,0.60
2019-01-03T19:22:24.553Z,0.70
2019-01-03T19:25:27.988Z,0.70
2019-01-03T19:28:31.424Z,0.60
2019-01-03T19:31:34.865Z,0.60
2019-01-03T19:34:38.276Z,0.60
2019-01-03T19:37:41.749Z,0.60
2019-01-03T19:40:45.185Z,0.60
2019-01-03T19:43:48.597Z,0.60
2019-01-03T19:46:52.043Z,0.70
2019-01-03T19:49:55.472Z,0.80
2019-01-03T19:52:58.889Z,0.80
2019-01-03T19:56:02.333Z,0.80
2019-01-03T19:59:05.745Z,0.80
2019-01-03T20:02:09.176Z,0.70
2019-01-03T20:05:12.687Z,0.70
2019-01-03T20:08:16.128Z,0.70
2019-01-03T20:11:19.568Z,0.70
2019-01-03T20:14:23.005Z,0.70
2019-01-03T20:17:26.448Z,0.70
2019-01-03T20:20:29.864Z,0.70
2019-01-03T20:23:33.306Z,0.70
2019-01-03T20:26:36.720Z,0.60
2019-01-03T20:29:40.169Z,0.50
2019-01-03T20:32:43.589Z,0.50
2019-01-03T20:35:47.037Z,0.60
2019-01-03T20:38:50.453Z,0.60
2019-01-03T20:41:53.883Z,0.60
2019-01-03T20:44:57.324Z,0.60
2019-01-03T20:48:00.738Z,0.60
2019-01-03T20:51:04.341Z,0.60
2019-01-03T20:54:07.775Z,0.50
2019-01-03T20:57:11.216Z,0.60
2019-01-03T21:00:15.826Z,0.60
2019-01-03T21:03:19.241Z,0.60
2019-01-03T21:06:22.685Z,0.60
2019-01-03T21:09:26.097Z,0.60
2019-01-03T21:12:29.548Z,0.60
2019-01-03T21:15:32.993Z,0.70
2019-01-03T21:18:36.396Z,0.80
2019-01-03T21:21:39.845Z,0.80
2019-01-03T21:24:43.281Z,0.80
2019-01-03T21:27:46.692Z,0.90
2019-01-03T21:30:50.148Z,0.90
2019-01-03T21:33:53.589Z,1.00
2019-01-03T21:36:57.017Z,1.00
2019-01-03T21:40:00.450Z,1.00
2019-01-03T21:43:03.866Z,1.00
2019-01-03T21:46:07.299Z,1.00
2019-01-03T21:49:10.755Z,1.00
2019-01-03T21:52:14.193Z,1.10
2019-01-03T21:55:17.632Z,1.10
2019-01-03T21:58:21.047Z,1.10
2019-01-03T22:01:24.484Z,1.10
2019-01-03T22:04:27.900Z,1.10
2019-01-03T22:07:31.386Z,1.10
2019-01-03T22:10:34.819Z,1.10
2019-01-03T22:13:38.256Z,1.00
2019-01-03T22:16:41.694Z,1.10
2019-01-03T22:19:45.144Z,1.00
2019-01-03T22:22:48.592Z,1.10
2019-01-03T22:25:52.029Z,1.10
2019-01-03T22:28:55.466Z,1.10
2019-01-03T22:31:58.914Z,1.10
2019-01-03T22:35:02.328Z,1.10
2019-01-03T22:38:05.765Z,1.10
2019-01-03T22:41:09.177Z,1.10
2019-01-03T22:44:12.616Z,1.10
2019-01-03T22:47:16.051Z,1.10
2019-01-03T22:50:19.465Z,1.10
2019-01-03T22:53:22.896Z,1.10
2019-01-03T22:56:26.332Z,1.10
2019-01-03T22:59:29.770Z,1.00
2019-01-03T23:02:33.204Z,0.90
2019-01-03T23:05:36.624Z,0.70
2019-01-03T23:08:40.065Z,0.60
2019-01-03T23:11:43.496Z,0.50
2019-01-03T23:14:46.928Z,0.40
2019-01-03T23:17:50.340Z,0.40
2019-01-03T23:20:53.783Z,0.30
2019-01-03T23:23:57.188Z,0.30
2019-01-03T23:27:00.641Z,0.20
2019-01-03T23:30:05.824Z,0.20
2019-01-03T23:33:09.242Z,0.20
2019-01-03T23:36:12.685Z,0.10
2019-01-03T23:39:16.117Z,0.10
2019-01-03T23:42:19.552Z,0.10
2019-01-03T23:45:22.964Z,0.10
2019-01-03T23:48:26.397Z,0.10
2019-01-03T23:51:29.836Z,0.10
2019-01-03T23:54:33.250Z,0.20
2019-01-03T23:57:36.689Z,0.10
